createdAt,value
2023-02-20T00:00:25.288Z,97132.00
2023-02-20T00:04:30.250Z,97131.00
2023-02-20T00:08:33.556Z,97144.00
2023-02-20T00:12:36.818Z,97136.00
2023-02-20T00:16:41.328Z,97141.00
2023-02-20T00:20:47.188Z,97138.00
2023-02-20T00:24:50.408Z,97134.00
2023-02-20T00:28:53.636Z,97126.00
2023-02-20T00:33:06.685Z,97137.00
2023-02-20T00:37:16.249Z,97138.00
2023-02-20T00:41:19.978Z,97132.00
2023-02-20T00:45:23.744Z,97139.00
2023-02-20T00:49:30.199Z,97139.00
2023-02-20T00:53:33.224Z,97138.00
2023-02-20T00:57:36.932Z,97143.00
2023-02-20T01:01:40.070Z,97140.00
2023-02-20T01:05:47.122Z,97131.00
2023-02-20T01:09:50.429Z,97143.00
2023-02-20T01:13:55.278Z,97122.00
2023-02-20T01:18:00.429Z,97123.00
2023-02-20T01:22:09.673Z,97120.00
2023-02-20T01:26:20.041Z,97118.00
2023-02-20T01:30:26.376Z,97118.00
2023-02-20T01:34:29.719Z,97122.00
2023-02-20T01:38:38.493Z,97122.00
2023-02-20T01:42:41.630Z,97131.00
2023-02-20T01:46:54.396Z,97141.00
2023-02-20T01:51:00.878Z,97125.00
2023-02-20T01:55:26.848Z,97118.00
2023-02-20T01:59:33.030Z,97108.00
2023-02-20T02:03:41.968Z,97108.00
2023-02-20T02:07:46.788Z,97108.00
2023-02-20T02:11:52.604Z,97099.00
2023-02-20T02:16:11.757Z,97098.00
2023-02-20T02:20:52.915Z,97114.00
2023-02-20T02:25:32.944Z,97107.00
2023-02-20T02:30:04.886Z,97115.00
2023-02-20T02:34:38.891Z,97108.00
2023-02-20T02:38:48.903Z,97107.00
2023-02-20T02:43:04.056Z,97091.00
2023-02-20T02:47:10.124Z,97102.00
2023-02-20T02:51:17.513Z,97092.00
2023-02-20T02:55:28.358Z,97073.00
2023-02-20T02:59:34.601Z,97061.00
2023-02-20T03:03:42.365Z,97081.00
2023-02-20T03:07:51.941Z,97081.00
2023-02-20T03:11:57.985Z,97072.00
2023-02-20T03:16:06.862Z,97078.00
2023-02-20T03:20:13.320Z,97067.00
2023-02-20T03:24:19.233Z,97076.00
2023-02-20T03:28:26.327Z,97080.00
2023-02-20T03:32:49.415Z,97094.00
2023-02-20T03:37:15.632Z,97090.00
2023-02-20T03:41:37.320Z,97087.00
2023-02-20T03:45:47.184Z,97083.00
2023-02-20T03:49:54.584Z,97083.00
2023-02-20T03:53:58.679Z,97084.00
2023-02-20T03:58:06.457Z,97075.00
2023-02-20T04:02:17.408Z,97081.00
2023-02-20T04:06:23.908Z,97084.00
2023-02-20T04:10:32.576Z,97083.00
2023-02-20T04:14:39.029Z,97078.00
2023-02-20T04:18:43.563Z,97089.00
2023-02-20T04:22:53.090Z,97090.00
2023-02-20T04:26:56.716Z,97087.00
2023-02-20T04:31:00.246Z,97093.00
2023-02-20T04:35:05.031Z,97091.00
2023-02-20T04:39:13.792Z,97108.00
2023-02-20T04:43:16.927Z,97107.00
2023-02-20T04:47:20.494Z,97094.00
2023-02-20T04:51:27.998Z,97097.00
2023-02-20T04:55:36.150Z,97102.00
2023-02-20T04:59:39.550Z,97098.00
2023-02-20T05:03:42.878Z,97090.00
2023-02-20T05:07:47.563Z,97090.00
2023-02-20T05:11:54.190Z,97095.00
2023-02-20T05:15:57.672Z,97102.00
2023-02-20T05:20:01.063Z,97100.00
2023-02-20T05:24:09.775Z,97104.00
2023-02-20T05:28:12.952Z,97107.00
2023-02-20T05:32:16.816Z,97116.00
2023-02-20T05:36:20.433Z,97116.00
2023-02-20T05:40:28.019Z,97122.00
2023-02-20T05:44:31.071Z,97115.00
2023-02-20T05:48:34.195Z,97119.00
2023-02-20T05:52:37.426Z,97120.00
2023-02-20T05:56:46.038Z,97121.00
2023-02-20T06:00:49.067Z,97121.00
2023-02-20T06:04:56.029Z,97125.00
2023-02-20T06:09:00.957Z,97117.00
2023-02-20T06:13:08.089Z,97122.00
2023-02-20T06:17:14.179Z,97134.00
2023-02-20T06:21:19.189Z,97142.00
2023-02-20T06:25:28.282Z,97151.00
2023-02-20T06:29:32.882Z,97150.00
2023-02-20T06:33:37.277Z,97166.00
2023-02-20T06:37:40.319Z,97154.00
2023-02-20T06:41:44.492Z,97154.00
2023-02-20T06:45:50.284Z,97155.00
2023-02-20T06:49:53.365Z,97173.00
2023-02-20T06:53:56.638Z,97158.00
2023-02-20T06:57:59.726Z,97168.00
2023-02-20T07:02:07.679Z,97161.00
2023-02-20T07:06:11.787Z,97159.00
2023-02-20T07:10:17.921Z,97151.00
2023-02-20T07:14:20.930Z,97157.00
2023-02-20T07:18:27.581Z,97150.00
2023-02-20T07:22:31.189Z,97148.00
2023-02-20T07:26:35.342Z,97154.00
2023-02-20T07:30:38.471Z,97142.00
2023-02-20T07:35:04.660Z,97133.00
2023-02-20T07:39:10.016Z,97152.00
2023-02-20T07:43:15.408Z,97161.00
2023-02-20T07:47:21.276Z,97157.00
2023-02-20T07:51:27.029Z,97154.00
2023-02-20T07:55:32.389Z,97152.00
2023-02-20T07:59:35.548Z,97147.00
2023-02-20T08:03:41.115Z,97138.00
2023-02-20T08:07:49.993Z,97133.00
2023-02-20T08:11:55.208Z,97134.00
2023-02-20T08:15:58.808Z,97150.00
2023-02-20T08:20:08.234Z,97129.00
2023-02-20T08:24:13.284Z,97137.00
2023-02-20T08:28:19.708Z,97154.00
2023-02-20T08:32:25.844Z,97152.00
2023-02-20T08:36:29.077Z,97136.00
2023-02-20T08:40:34.133Z,97123.00
2023-02-20T08:44:41.998Z,97126.00
2023-02-20T08:48:45.978Z,97112.00
2023-02-20T08:52:53.926Z,97102.00
2023-02-20T08:56:58.646Z,97099.00
2023-02-20T09:01:02.022Z,97099.00
2023-02-20T09:05:05.469Z,97100.00
2023-02-20T09:09:08.654Z,97091.00
2023-02-20T09:13:15.965Z,97079.00
2023-02-20T09:17:21.815Z,97072.00
2023-02-20T09:21:30.851Z,97071.00
2023-02-20T09:25:37.817Z,97054.00
2023-02-20T09:29:44.447Z,97054.00
2023-02-20T09:33:51.410Z,97077.00
2023-02-20T09:37:55.296Z,97064.00
2023-02-20T09:42:18.057Z,97074.00
2023-02-20T09:46:28.612Z,97081.00
2023-02-20T09:50:37.884Z,97077.00
2023-02-20T09:54:46.078Z,97075.00
2023-02-20T09:58:52.932Z,97061.00
2023-02-20T10:03:09.773Z,97062.00
2023-02-20T10:07:21.379Z,97048.00
2023-02-20T10:11:42.663Z,97052.00
2023-02-20T10:16:00.643Z,97047.00
2023-02-20T10:20:15.690Z,97047.00
2023-02-20T10:24:42.544Z,97053.00
2023-02-20T10:28:50.227Z,97050.00
2023-02-20T10:32:58.906Z,97043.00
2023-02-20T10:37:07.958Z,97035.00
2023-02-20T10:41:19.681Z,97038.00
2023-02-20T10:45:33.470Z,97033.00
2023-02-20T10:49:44.738Z,97017.00
2023-02-20T10:53:55.755Z,96999.00
2023-02-20T10:58:05.210Z,97006.00
2023-02-20T11:02:18.849Z,97000.00
2023-02-20T11:06:27.084Z,96988.00
2023-02-20T11:10:32.592Z,96992.00
2023-02-20T11:14:47.161Z,96990.00
2023-02-20T11:19:03.888Z,96980.00
2023-02-20T11:23:07.629Z,96978.00
2023-02-20T11:27:17.511Z,96982.00
2023-02-20T11:31:26.567Z,96972.00
2023-02-20T11:35:33.763Z,96970.00
2023-02-20T11:39:37.244Z,96942.00
2023-02-20T11:44:00.761Z,96961.00
2023-02-20T11:48:12.536Z,96955.00
2023-02-20T11:52:25.199Z,96946.00
2023-02-20T11:56:28.382Z,96945.00
2023-02-20T12:00:46.897Z,96942.00
2023-02-20T12:05:09.960Z,96933.00
2023-02-20T12:09:17.144Z,96923.00
2023-02-20T12:13:20.296Z,96923.00
2023-02-20T12:17:35.319Z,96918.00
2023-02-20T12:21:50.952Z,96905.00
2023-02-20T12:26:07.962Z,96901.00
2023-02-20T12:30:22.283Z,96898.00
2023-02-20T12:34:46.039Z,96886.00
2023-02-20T12:38:57.399Z,96886.00
2023-02-20T12:43:14.404Z,96885.00
2023-02-20T12:47:43.546Z,96867.00
2023-02-20T12:51:55.057Z,96861.00
2023-02-20T12:56:09.560Z,96857.00
2023-02-20T13:00:32.456Z,96857.00
2023-02-20T13:04:43.538Z,96848.00
2023-02-20T13:08:58.038Z,96839.00
2023-02-20T13:13:03.578Z,96824.00
2023-02-20T13:17:29.375Z,96825.00
2023-02-20T13:21:34.920Z,96811.00
2023-02-20T13:25:51.391Z,96796.00
2023-02-20T13:30:00.515Z,96814.00
2023-02-20T13:34:32.541Z,96802.00
2023-02-20T13:38:35.914Z,96800.00
2023-02-20T13:42:41.905Z,96780.00
2023-02-20T13:46:57.881Z,96795.00
2023-02-20T13:51:31.804Z,96795.00
2023-02-20T13:55:38.249Z,96779.00
2023-02-20T13:59:43.000Z,96766.00
2023-02-20T14:04:04.530Z,96783.00
2023-02-20T14:08:08.253Z,96776.00
2023-02-20T14:12:14.844Z,96768.00
2023-02-20T14:16:40.119Z,96771.00
2023-02-20T14:20:44.866Z,96772.00
2023-02-20T14:24:48.719Z,96768.00
2023-02-20T14:28:55.500Z,96774.00
2023-02-20T14:33:01.855Z,96753.00
2023-02-20T14:37:14.928Z,96759.00
2023-02-20T14:41:20.929Z,96749.00
2023-02-20T14:45:27.456Z,96746.00
2023-02-20T14:49:32.338Z,96753.00
2023-02-20T14:53:39.578Z,96757.00
2023-02-20T14:57:44.567Z,96754.00
2023-02-20T15:01:49.224Z,96743.00
2023-02-20T15:05:56.196Z,96746.00
2023-02-20T15:10:03.300Z,96749.00
2023-02-20T15:14:21.951Z,96752.00
2023-02-20T15:18:35.640Z,96756.00
2023-02-20T15:22:40.916Z,96739.00
2023-02-20T15:26:44.376Z,96726.00
2023-02-20T15:31:21.430Z,96730.00
2023-02-20T15:35:31.010Z,96722.00
2023-02-20T15:39:41.022Z,96719.00
2023-02-20T15:43:50.716Z,96722.00
2023-02-20T15:47:55.962Z,96721.00
2023-02-20T15:52:07.749Z,96724.00
2023-02-20T15:56:14.017Z,96716.00
2023-02-20T16:00:23.184Z,96713.00
2023-02-20T16:04:28.648Z,96707.00
2023-02-20T16:08:31.667Z,96701.00
2023-02-20T16:12:36.124Z,96692.00
2023-02-20T16:16:46.345Z,96690.00
2023-02-20T16:20:50.025Z,96685.00
2023-02-20T16:24:56.105Z,96681.00
2023-02-20T16:29:04.023Z,96664.00
2023-02-20T16:33:17.187Z,96673.00
2023-02-20T16:37:24.717Z,96664.00
2023-02-20T16:41:34.317Z,96661.00
2023-02-20T16:45:39.264Z,96669.00
2023-02-20T16:49:45.367Z,96667.00
2023-02-20T16:53:50.365Z,96656.00
2023-02-20T16:57:53.958Z,96657.00
2023-02-20T17:01:59.937Z,96661.00
2023-02-20T17:06:10.557Z,96654.00
2023-02-20T17:10:15.852Z,96660.00
2023-02-20T17:14:18.872Z,96660.00
2023-02-20T17:18:23.933Z,96660.00
2023-02-20T17:22:28.178Z,96664.00
2023-02-20T17:26:31.383Z,96663.00
2023-02-20T17:30:36.525Z,96663.00
2023-02-20T17:34:41.241Z,96673.00
2023-02-20T17:38:46.101Z,96663.00
2023-02-20T17:42:49.131Z,96672.00
2023-02-20T17:46:52.598Z,96665.00
2023-02-20T17:51:00.119Z,96678.00
2023-02-20T17:55:03.384Z,96679.00
2023-02-20T17:59:06.422Z,96672.00
2023-02-20T18:03:12.283Z,96683.00
2023-02-20T18:07:17.722Z,96680.00
2023-02-20T18:11:20.919Z,96683.00
2023-02-20T18:15:25.578Z,96683.00
2023-02-20T18:19:28.684Z,96679.00
2023-02-20T18:23:33.080Z,96666.00
2023-02-20T18:27:39.243Z,96678.00
2023-02-20T18:31:43.067Z,96669.00
2023-02-20T18:35:55.518Z,96677.00
2023-02-20T18:40:12.304Z,96668.00
2023-02-20T18:44:16.367Z,96674.00
2023-02-20T18:48:19.451Z,96662.00
2023-02-20T18:52:23.797Z,96665.00
2023-02-20T18:56:36.873Z,96665.00
2023-02-20T19:00:40.946Z,96655.00
2023-02-20T19:04:44.317Z,96642.00
2023-02-20T19:08:49.241Z,96645.00
2023-02-20T19:12:59.353Z,96650.00
2023-02-20T19:17:03.851Z,96651.00
2023-02-20T19:21:08.584Z,96646.00
2023-02-20T19:25:15.021Z,96643.00
2023-02-20T19:29:19.703Z,96656.00
2023-02-20T19:33:22.932Z,96639.00
2023-02-20T19:37:26.221Z,96635.00
2023-02-20T19:41:36.175Z,96655.00
2023-02-20T19:45:43.460Z,96656.00
2023-02-20T19:49:53.994Z,96647.00
2023-02-20T19:54:01.461Z,96642.00
2023-02-20T19:58:09.941Z,96647.00
2023-02-20T20:02:14.791Z,96648.00
2023-02-20T20:06:21.206Z,96659.00
2023-02-20T20:10:24.941Z,96654.00
2023-02-20T20:14:29.325Z,96660.00
2023-02-20T20:18:36.219Z,96664.00
2023-02-20T20:22:45.418Z,96663.00
2023-02-20T20:26:50.483Z,96666.00
2023-02-20T20:30:54.192Z,96658.00
2023-02-20T20:34:59.918Z,96669.00
2023-02-20T20:39:03.979Z,96670.00
2023-02-20T20:43:10.739Z,96653.00
2023-02-20T20:47:14.355Z,96661.00
2023-02-20T20:51:19.542Z,96663.00
2023-02-20T20:55:28.927Z,96663.00
2023-02-20T20:59:32.318Z,96655.00
2023-02-20T21:03:42.834Z,96658.00
2023-02-20T21:07:47.674Z,96656.00
2023-02-20T21:11:50.800Z,96659.00
2023-02-20T21:15:54.328Z,96649.00
2023-02-20T21:19:57.396Z,96654.00
2023-02-20T21:24:02.117Z,96651.00
2023-02-20T21:28:05.783Z,96640.00
2023-02-20T21:32:08.863Z,96643.00
2023-02-20T21:36:12.211Z,96646.00
2023-02-20T21:40:20.157Z,96642.00
2023-02-20T21:44:28.539Z,96637.00
2023-02-20T21:48:31.660Z,96638.00
2023-02-20T21:52:37.596Z,96641.00
2023-02-20T21:56:45.837Z,96636.00
2023-02-20T22:00:48.339Z,96639.00
2023-02-20T22:04:50.735Z,96648.00
2023-02-20T22:09:12.186Z,96634.00
2023-02-20T22:13:34.051Z,96632.00
2023-02-20T22:17:57.902Z,96638.00
2023-02-20T22:22:19.562Z,96638.00
2023-02-20T22:26:43.072Z,96629.00
2023-02-20T22:31:05.552Z,96633.00
2023-02-20T22:35:26.752Z,96626.00
2023-02-20T22:39:47.258Z,96632.00
2023-02-20T22:44:08.273Z,96632.00
2023-02-20T22:48:34.235Z,96630.00
2023-02-20T22:52:54.998Z,96636.00
2023-02-20T22:57:16.128Z,96629.00
2023-02-20T23:01:36.907Z,96638.00
2023-02-20T23:06:04.968Z,96642.00
2023-02-20T23:10:35.040Z,96638.00
2023-02-20T23:14:55.620Z,96636.00
2023-02-20T23:19:16.385Z,96637.00
2023-02-20T23:23:39.495Z,96638.00
2023-02-20T23:28:00.063Z,96634.00
2023-02-20T23:32:20.405Z,96636.00
2023-02-20T23:36:42.124Z,96628.00
2023-02-20T23:41:05.935Z,96633.00
2023-02-20T23:45:29.684Z,96638.00
2023-02-20T23:49:50.954Z,96638.00
2023-02-20T23:54:11.761Z,96628.00
2023-02-20T23:58:33.553Z,96632.00
